sensor_id;sensor_type;location;lat;lon;timestamp;pressure;altitude;pressure_sealevel;temperature;humidity
53671;BME280;39571;48.612;8.088;2022-07-29T09:11:28;99678.31;;;39.26;20.46
53671;BME280;39571;48.612;8.088;2022-07-29T09:13:54;99679.03;;;39.07;20.29
53671;BME280;39571;48.612;8.088;2022-07-29T09:16:22;99682.13;;;37.52;22.33
53671;BME280;39571;48.612;8.088;2022-07-29T09:18:47;99673.69;;;37.11;22.47
53671;BME280;39571;48.612;8.088;2022-07-29T09:21:15;99688.81;;;35.51;24.17
53671;BME280;39571;48.612;8.088;2022-07-29T09:24:15;99681.25;;;35.07;25.33
53671;BME280;39571;48.612;8.088;2022-07-29T09:26:43;99675.84;;;34.68;26.38
53671;BME280;39571;48.612;8.088;2022-07-29T09:29:14;99680.88;;;34.32;26.01
53671;BME280;39571;48.612;8.088;2022-07-29T09:31:41;99682.56;;;34.33;26.07
53671;BME280;39571;48.612;8.088;2022-07-29T09:34:08;99678.75;;;33.05;26.83
53671;BME280;39571;48.612;8.088;2022-07-29T09:36:42;99683.94;;;31.79;29.20
53671;BME280;39571;48.612;8.088;2022-07-29T09:39:08;99685.19;;;32.96;27.77
53671;BME280;39571;48.612;8.088;2022-07-29T09:41:51;99679.81;;;33.12;27.34
53671;BME280;39571;48.612;8.088;2022-07-29T09:44:20;99672.25;;;32.82;27.35
53671;BME280;39571;48.612;8.088;2022-07-29T09:46:56;99673.25;;;33.47;26.85
53671;BME280;39571;48.612;8.088;2022-07-29T09:49:23;99671.38;;;35.14;24.83
53671;BME280;39571;48.612;8.088;2022-07-29T09:51:59;99658.31;;;36.88;23.00
53671;BME280;39571;48.612;8.088;2022-07-29T09:54:25;99656.41;;;39.46;19.69
53671;BME280;39571;48.612;8.088;2022-07-29T09:56:53;99661.97;;;39.72;18.92
53671;BME280;39571;48.612;8.088;2022-07-29T09:59:19;99649.69;;;40.07;18.10
53671;BME280;39571;48.612;8.088;2022-07-29T10:01:51;99652.22;;;40.28;18.84
53671;BME280;39571;48.612;8.088;2022-07-29T10:04:17;99649.50;;;39.89;18.73
53671;BME280;39571;48.612;8.088;2022-07-29T10:07:03;99640.81;;;39.26;19.35
53671;BME280;39571;48.612;8.088;2022-07-29T10:09:31;99640.81;;;38.79;20.23
53671;BME280;39571;48.612;8.088;2022-07-29T10:12:23;99642.56;;;39.00;19.60
53671;BME280;39571;48.612;8.088;2022-07-29T10:14:49;99633.91;;;38.83;20.14
53671;BME280;39571;48.612;8.088;2022-07-29T10:17:16;99627.31;;;37.74;20.49
53671;BME280;39571;48.612;8.088;2022-07-29T10:19:42;99619.84;;;37.19;20.63
53671;BME280;39571;48.612;8.088;2022-07-29T10:22:09;99628.00;;;35.95;21.14
53671;BME280;39571;48.612;8.088;2022-07-29T10:24:36;99627.78;;;35.82;21.63
53671;BME280;39571;48.612;8.088;2022-07-29T10:27:04;99631.47;;;35.29;22.32
53671;BME280;39571;48.612;8.088;2022-07-29T10:29:30;99632.41;;;35.82;22.29
53671;BME280;39571;48.612;8.088;2022-07-29T10:40:32;99618.38;;;35.02;22.36
53671;BME280;39571;48.612;8.088;2022-07-29T10:43:32;99620.13;;;34.01;23.42
53671;BME280;39571;48.612;8.088;2022-07-29T10:46:02;99606.56;;;33.85;23.65
53671;BME280;39571;48.612;8.088;2022-07-29T10:48:28;99608.97;;;33.72;24.46
53671;BME280;39571;48.612;8.088;2022-07-29T10:51:04;99611.63;;;34.04;24.22
53671;BME280;39571;48.612;8.088;2022-07-29T10:56:25;99621.88;;;33.62;24.46
53671;BME280;39571;48.612;8.088;2022-07-29T11:01:52;99613.97;;;32.94;24.60
53671;BME280;39571;48.612;8.088;2022-07-29T11:07:09;99623.97;;;32.85;24.56
53671;BME280;39571;48.612;8.088;2022-07-29T11:09:35;99626.41;;;32.63;24.43
53671;BME280;39571;48.612;8.088;2022-07-29T11:12:00;99628.88;;;32.82;24.67
53671;BME280;39571;48.612;8.088;2022-07-29T11:17:23;99625.00;;;32.92;25.06
53671;BME280;39571;48.612;8.088;2022-07-29T11:19:48;99620.38;;;32.77;25.41
53671;BME280;39571;48.612;8.088;2022-07-29T11:22:34;99619.19;;;32.71;25.50
53671;BME280;39571;48.612;8.088;2022-07-29T11:25:17;99618.56;;;33.01;25.61
53671;BME280;39571;48.612;8.088;2022-07-29T11:27:44;99630.13;;;33.12;25.55
53671;BME280;39571;48.612;8.088;2022-07-29T11:30:10;99626.94;;;33.32;24.97
53671;BME280;39571;48.612;8.088;2022-07-29T11:32:42;99616.00;;;33.00;26.04
53671;BME280;39571;48.612;8.088;2022-07-29T11:37:37;99620.19;;;32.70;26.62
53671;BME280;39571;48.612;8.088;2022-07-29T11:44:58;99625.69;;;32.19;26.74
53671;BME280;39571;48.612;8.088;2022-07-29T11:47:25;99633.53;;;32.04;27.55
53671;BME280;39571;48.612;8.088;2022-07-29T11:49:52;99626.88;;;32.16;27.49
53671;BME280;39571;48.612;8.088;2022-07-29T11:52:18;99628.66;;;31.82;27.73
53671;BME280;39571;48.612;8.088;2022-07-29T11:54:47;99631.94;;;31.93;28.01
53671;BME280;39571;48.612;8.088;2022-07-29T11:57:16;99637.47;;;31.84;27.99
53671;BME280;39571;48.612;8.088;2022-07-29T11:59:42;99637.69;;;31.65;28.23
53671;BME280;39571;48.612;8.088;2022-07-29T12:02:09;99637.13;;;31.61;28.61
53671;BME280;39571;48.612;8.088;2022-07-29T12:04:51;99637.59;;;31.39;28.54
53671;BME280;39571;48.612;8.088;2022-07-29T12:07:17;99632.72;;;31.42;28.85
53671;BME280;39571;48.612;8.088;2022-07-29T12:09:52;99628.69;;;31.11;29.31
53671;BME280;39571;48.612;8.088;2022-07-29T12:12:18;99631.63;;;31.00;28.61
53671;BME280;39571;48.612;8.088;2022-07-29T12:14:44;99639.31;;;30.95;28.77
53671;BME280;39571;48.612;8.088;2022-07-29T12:17:29;99638.53;;;30.85;29.25
53671;BME280;39571;48.612;8.088;2022-07-29T12:19:56;99647.03;;;30.90;29.56
53671;BME280;39571;48.612;8.088;2022-07-29T12:25:01;99640.97;;;30.61;29.24
53671;BME280;39571;48.612;8.088;2022-07-29T12:27:28;99641.28;;;30.58;29.53
53671;BME280;39571;48.612;8.088;2022-07-29T12:30:02;99643.25;;;30.55;28.74
53671;BME280;39571;48.612;8.088;2022-07-29T12:32:47;99639.88;;;30.53;29.40
53671;BME280;39571;48.612;8.088;2022-07-29T12:35:15;99641.28;;;30.58;29.45
53671;BME280;39571;48.612;8.088;2022-07-29T12:37:42;99636.84;;;30.56;29.82
53671;BME280;39571;48.612;8.088;2022-07-29T12:40:10;99641.28;;;30.58;30.03
53671;BME280;39571;48.612;8.088;2022-07-29T12:42:35;99636.16;;;30.54;30.40
53671;BME280;39571;48.612;8.088;2022-07-29T12:45:03;99625.84;;;30.40;30.29
53671;BME280;39571;48.612;8.088;2022-07-29T12:47:29;99634.25;;;30.28;29.54
53671;BME280;39571;48.612;8.088;2022-07-29T12:50:14;99634.50;;;30.34;30.03
53671;BME280;39571;48.612;8.088;2022-07-29T12:52:43;99639.91;;;30.34;29.33
53671;BME280;39571;48.612;8.088;2022-07-29T12:55:10;99637.34;;;30.42;30.43
53671;BME280;39571;48.612;8.088;2022-07-29T12:57:49;99633.53;;;30.63;30.15
53671;BME280;39571;48.612;8.088;2022-07-29T13:00:16;99635.56;;;30.61;30.22
53671;BME280;39571;48.612;8.088;2022-07-29T13:02:42;99642.00;;;30.13;31.07
53671;BME280;39571;48.612;8.088;2022-07-29T13:05:09;99635.22;;;30.36;31.02
53671;BME280;39571;48.612;8.088;2022-07-29T13:07:37;99637.38;;;30.33;30.83
53671;BME280;39571;48.612;8.088;2022-07-29T13:12:38;99642.75;;;30.70;30.82
53671;BME280;39571;48.612;8.088;2022-07-29T13:15:14;99634.34;;;30.73;30.27
53671;BME280;39571;48.612;8.088;2022-07-29T13:17:44;99635.91;;;30.93;30.59
53671;BME280;39571;48.612;8.088;2022-07-29T13:20:11;99630.81;;;30.99;29.73
53671;BME280;39571;48.612;8.088;2022-07-29T13:22:43;99635.00;;;30.84;29.54
53671;BME280;39571;48.612;8.088;2022-07-29T13:25:12;99636.06;;;30.74;29.78
53671;BME280;39571;48.612;8.088;2022-07-29T13:27:38;99640.75;;;30.72;29.62
53671;BME280;39571;48.612;8.088;2022-07-29T13:30:05;99637.72;;;30.20;29.90
53671;BME280;39571;48.612;8.088;2022-07-29T13:32:32;99634.38;;;29.80;30.39
53671;BME280;39571;48.612;8.088;2022-07-29T13:35:01;99628.16;;;29.70;30.17
53671;BME280;39571;48.612;8.088;2022-07-29T13:37:27;99637.50;;;29.94;30.84
53671;BME280;39571;48.612;8.088;2022-07-29T13:39:54;99644.94;;;29.64;31.39
53671;BME280;39571;48.612;8.088;2022-07-29T13:42:21;99636.16;;;29.42;31.37
53671;BME280;39571;48.612;8.088;2022-07-29T13:44:47;99637.25;;;29.88;31.04
53671;BME280;39571;48.612;8.088;2022-07-29T13:47:13;99644.63;;;29.86;30.54
53671;BME280;39571;48.612;8.088;2022-07-29T13:49:39;99640.16;;;30.04;30.45
53671;BME280;39571;48.612;8.088;2022-07-29T13:52:04;99637.72;;;30.11;30.67
53671;BME280;39571;48.612;8.088;2022-07-29T13:54:32;99637.91;;;30.09;30.25
53671;BME280;39571;48.612;8.088;2022-07-29T13:56:58;99628.28;;;30.24;30.49
53671;BME280;39571;48.612;8.088;2022-07-29T13:59:23;99637.19;;;30.07;30.03
53671;BME280;39571;48.612;8.088;2022-07-29T14:01:48;99629.44;;;29.75;30.38
53671;BME280;39571;48.612;8.088;2022-07-29T14:04:14;99627.00;;;29.91;29.73
53671;BME280;39571;48.612;8.088;2022-07-29T14:06:40;99622.16;;;29.95;29.95
53671;BME280;39571;48.612;8.088;2022-07-29T14:09:05;99627.53;;;30.04;30.33
53671;BME280;39571;48.612;8.088;2022-07-29T14:11:32;99616.63;;;29.87;30.04
53671;BME280;39571;48.612;8.088;2022-07-29T14:13:57;99619.91;;;29.81;29.58
53671;BME280;39571;48.612;8.088;2022-07-29T14:16:22;99618.47;;;29.77;29.96
53671;BME280;39571;48.612;8.088;2022-07-29T14:18:48;99627.63;;;29.56;29.52
53671;BME280;39571;48.612;8.088;2022-07-29T14:21:13;99625.88;;;29.65;29.66
53671;BME280;39571;48.612;8.088;2022-07-29T14:23:39;99624.47;;;29.71;30.19
53671;BME280;39571;48.612;8.088;2022-07-29T14:26:04;99618.22;;;29.70;29.58
53671;BME280;39571;48.612;8.088;2022-07-29T14:28:30;99621.44;;;29.93;29.57
53671;BME280;39571;48.612;8.088;2022-07-29T14:30:55;99626.84;;;29.93;29.86
53671;BME280;39571;48.612;8.088;2022-07-29T14:33:20;99623.84;;;30.05;29.86
53671;BME280;39571;48.612;8.088;2022-07-29T14:35:46;99623.28;;;29.83;30.33
53671;BME280;39571;48.612;8.088;2022-07-29T14:38:11;99623.63;;;29.70;30.83
53671;BME280;39571;48.612;8.088;2022-07-29T14:40:36;99624.75;;;29.87;31.08
53671;BME280;39571;48.612;8.088;2022-07-29T14:43:03;99625.03;;;29.84;31.14
53671;BME280;39571;48.612;8.088;2022-07-29T14:45:28;99632.06;;;30.04;31.50
53671;BME280;39571;48.612;8.088;2022-07-29T14:47:54;99625.06;;;29.65;30.54
53671;BME280;39571;48.612;8.088;2022-07-29T14:50:19;99621.34;;;29.75;31.26
53671;BME280;39571;48.612;8.088;2022-07-29T14:52:45;99615.09;;;29.75;31.33
53671;BME280;39571;48.612;8.088;2022-07-29T14:55:10;99625.88;;;29.75;30.70
53671;BME280;39571;48.612;8.088;2022-07-29T14:57:36;99622.66;;;29.62;30.07
53671;BME280;39571;48.612;8.088;2022-07-29T15:00:03;99618.81;;;29.45;29.48
53671;BME280;39571;48.612;8.088;2022-07-29T15:02:29;99625.91;;;29.55;29.98
53671;BME280;39571;48.612;8.088;2022-07-29T15:04:55;99626.34;;;29.61;29.89
53671;BME280;39571;48.612;8.088;2022-07-29T15:07:20;99632.16;;;29.27;29.55
53671;BME280;39571;48.612;8.088;2022-07-29T15:09:45;99628.88;;;29.52;29.77
53671;BME280;39571;48.612;8.088;2022-07-29T15:12:11;99631.28;;;29.55;30.05
53671;BME280;39571;48.612;8.088;2022-07-29T15:14:36;99627.88;;;29.63;29.86
53671;BME280;39571;48.612;8.088;2022-07-29T15:17:02;99630.69;;;29.81;30.37
53671;BME280;39571;48.612;8.088;2022-07-29T15:19:27;99627.66;;;29.37;29.03
53671;BME280;39571;48.612;8.088;2022-07-29T15:21:53;99626.34;;;29.61;28.78
53671;BME280;39571;48.612;8.088;2022-07-29T15:24:19;99623.06;;;29.09;30.06
53671;BME280;39571;48.612;8.088;2022-07-29T15:26:44;99622.78;;;29.12;30.39
53671;BME280;39571;48.612;8.088;2022-07-29T15:29:10;99627.50;;;29.39;29.96
53671;BME280;39571;48.612;8.088;2022-07-29T15:31:35;99626.50;;;29.49;30.00
53671;BME280;39571;48.612;8.088;2022-07-29T15:34:01;99618.53;;;29.57;29.68
53671;BME280;39571;48.612;8.088;2022-07-29T15:36:26;99624.22;;;29.45;29.70
53671;BME280;39571;48.612;8.088;2022-07-29T15:38:53;99629.88;;;29.51;29.41
53671;BME280;39571;48.612;8.088;2022-07-29T15:41:19;99636.16;;;29.33;29.40
53671;BME280;39571;48.612;8.088;2022-07-29T15:43:44;99632.56;;;29.23;29.83
53671;BME280;39571;48.612;8.088;2022-07-29T15:46:13;99627.59;;;28.99;29.98
53671;BME280;39571;48.612;8.088;2022-07-29T15:48:57;99625.19;;;28.96;29.08
53671;BME280;39571;48.612;8.088;2022-07-29T15:51:23;99627.28;;;28.83;29.70
53671;BME280;39571;48.612;8.088;2022-07-29T15:53:49;99622.50;;;28.96;29.99
53671;BME280;39571;48.612;8.088;2022-07-29T15:56:14;99626.44;;;28.82;30.09
53671;BME280;39571;48.612;8.088;2022-07-29T15:58:40;99622.34;;;28.88;30.04
53671;BME280;39571;48.612;8.088;2022-07-29T16:01:05;99623.88;;;28.81;30.90
53671;BME280;39571;48.612;8.088;2022-07-29T16:03:31;99629.22;;;28.62;30.17
53671;BME280;39571;48.612;8.088;2022-07-29T16:05:57;99618.69;;;28.58;30.19
53671;BME280;39571;48.612;8.088;2022-07-29T16:08:23;99615.88;;;28.60;30.33
53671;BME280;39571;48.612;8.088;2022-07-29T16:10:48;99617.34;;;28.74;30.80
53671;BME280;39571;48.612;8.088;2022-07-29T16:13:13;99604.75;;;28.84;31.26
53671;BME280;39571;48.612;8.088;2022-07-29T16:15:39;99611.09;;;28.83;29.99
53671;BME280;39571;48.612;8.088;2022-07-29T16:18:04;99609.88;;;28.47;29.32
53671;BME280;39571;48.612;8.088;2022-07-29T16:20:30;99615.41;;;28.45;29.37
53671;BME280;39571;48.612;8.088;2022-07-29T16:22:55;99617.00;;;28.57;29.01
53671;BME280;39571;48.612;8.088;2022-07-29T16:25:20;99609.03;;;28.46;29.35
53671;BME280;39571;48.612;8.088;2022-07-29T16:27:46;99609.03;;;28.46;29.92
53671;BME280;39571;48.612;8.088;2022-07-29T16:30:11;99603.09;;;28.52;30.81
53671;BME280;39571;48.612;8.088;2022-07-29T16:32:37;99603.75;;;28.45;30.81
53671;BME280;39571;48.612;8.088;2022-07-29T16:35:04;99605.06;;;28.50;30.79
53671;BME280;39571;48.612;8.088;2022-07-29T16:37:29;99600.19;;;28.35;31.05
53671;BME280;39571;48.612;8.088;2022-07-29T16:40:01;99607.53;;;28.23;30.92
53671;BME280;39571;48.612;8.088;2022-07-29T16:42:26;99605.56;;;28.25;30.60
53671;BME280;39571;48.612;8.088;2022-07-29T16:44:51;99612.78;;;28.04;31.25
53671;BME280;39571;48.612;8.088;2022-07-29T16:47:17;99610.06;;;28.15;31.41
53671;BME280;39571;48.612;8.088;2022-07-29T16:49:42;99605.91;;;28.11;31.23
53671;BME280;39571;48.612;8.088;2022-07-29T16:52:07;99601.59;;;28.29;31.65
53671;BME280;39571;48.612;8.088;2022-07-29T16:54:33;99607.41;;;28.34;31.38
53671;BME280;39571;48.612;8.088;2022-07-29T16:56:58;99604.03;;;28.32;30.77
53671;BME280;39571;48.612;8.088;2022-07-29T16:59:25;99622.31;;;28.38;30.83
53671;BME280;39571;48.612;8.088;2022-07-29T17:01:51;99611.81;;;28.35;30.47
53671;BME280;39571;48.612;8.088;2022-07-29T17:04:16;99612.41;;;28.48;30.08
53671;BME280;39571;48.612;8.088;2022-07-29T17:06:42;99613.97;;;28.41;29.74
53671;BME280;39571;48.612;8.088;2022-07-29T17:09:08;99608.16;;;28.36;29.61
53671;BME280;39571;48.612;8.088;2022-07-29T17:11:34;99612.81;;;28.34;29.91
53671;BME280;39571;48.612;8.088;2022-07-29T17:14:00;99617.47;;;28.32;29.92
53671;BME280;39571;48.612;8.088;2022-07-29T17:16:26;99625.56;;;28.32;30.05
53671;BME280;39571;48.612;8.088;2022-07-29T17:18:54;99627.06;;;28.16;29.68
53671;BME280;39571;48.612;8.088;2022-07-29T17:21:20;99628.44;;;28.10;29.79
53671;BME280;39571;48.612;8.088;2022-07-29T17:23:46;99630.72;;;27.94;29.81
53671;BME280;39571;48.612;8.088;2022-07-29T17:26:11;99627.78;;;27.97;29.68
53671;BME280;39571;48.612;8.088;2022-07-29T17:28:37;99628.97;;;27.83;30.26
53671;BME280;39571;48.612;8.088;2022-07-29T17:31:02;99622.56;;;27.75;30.54
53671;BME280;39571;48.612;8.088;2022-07-29T17:33:28;99631.88;;;27.71;30.52
53671;BME280;39571;48.612;8.088;2022-07-29T17:35:53;99627.03;;;27.65;30.91
53671;BME280;39571;48.612;8.088;2022-07-29T17:38:37;99629.50;;;27.56;31.40
53671;BME280;39571;48.612;8.088;2022-07-29T17:41:02;99631.72;;;27.51;31.54
53671;BME280;39571;48.612;8.088;2022-07-29T17:43:28;99625.53;;;27.51;32.08
53671;BME280;39571;48.612;8.088;2022-07-29T17:45:53;99633.97;;;27.46;32.29
53671;BME280;39571;48.612;8.088;2022-07-29T17:48:18;99640.84;;;27.28;32.58
53671;BME280;39571;48.612;8.088;2022-07-29T17:50:45;99639.75;;;27.31;32.95
53671;BME280;39571;48.612;8.088;2022-07-29T17:53:11;99638.91;;;27.30;33.24
53671;BME280;39571;48.612;8.088;2022-07-29T17:55:36;99646.50;;;27.25;33.51
53671;BME280;39571;48.612;8.088;2022-07-29T17:58:04;99643.81;;;27.25;33.49
53671;BME280;39571;48.612;8.088;2022-07-29T18:00:29;99649.22;;;27.14;33.78
53671;BME280;39571;48.612;8.088;2022-07-29T18:02:55;99647.28;;;27.16;33.92
53671;BME280;39571;48.612;8.088;2022-07-29T18:05:20;99650.00;;;27.05;34.13
53671;BME280;39571;48.612;8.088;2022-07-29T18:07:45;99647.16;;;27.06;33.99
53671;BME280;39571;48.612;8.088;2022-07-29T18:10:11;99653.47;;;26.96;34.42
53671;BME280;39571;48.612;8.088;2022-07-29T18:12:36;99656.63;;;26.90;34.85
53671;BME280;39571;48.612;8.088;2022-07-29T18:15:02;99656.16;;;26.85;35.00
53671;BME280;39571;48.612;8.088;2022-07-29T18:17:27;99662.38;;;26.74;35.50
53671;BME280;39571;48.612;8.088;2022-07-29T18:19:53;99672.41;;;26.61;35.56
53671;BME280;39571;48.612;8.088;2022-07-29T18:22:18;99666.91;;;26.74;35.23
53671;BME280;39571;48.612;8.088;2022-07-29T18:24:43;99665.81;;;26.65;35.60
53671;BME280;39571;48.612;8.088;2022-07-29T18:27:09;99671.31;;;26.63;35.78
53671;BME280;39571;48.612;8.088;2022-07-29T18:29:34;99672.06;;;26.54;35.92
53671;BME280;39571;48.612;8.088;2022-07-29T18:32:00;99672.06;;;26.54;35.67
53671;BME280;39571;48.612;8.088;2022-07-29T18:34:26;99670.34;;;26.53;36.13
53671;BME280;39571;48.612;8.088;2022-07-29T18:36:52;99677.91;;;26.48;36.67
53671;BME280;39571;48.612;8.088;2022-07-29T18:39:17;99673.53;;;26.36;36.69
53671;BME280;39571;48.612;8.088;2022-07-29T18:41:43;99673.50;;;26.25;36.39
53671;BME280;39571;48.612;8.088;2022-07-29T18:44:08;99672.03;;;26.21;36.76
53671;BME280;39571;48.612;8.088;2022-07-29T18:46:34;99675.91;;;26.06;36.86
53671;BME280;39571;48.612;8.088;2022-07-29T18:48:59;99678.09;;;26.01;37.64
53671;BME280;39571;48.612;8.088;2022-07-29T18:51:25;99670.41;;;25.96;37.50
53671;BME280;39571;48.612;8.088;2022-07-29T18:53:50;99673.47;;;25.92;37.45
53671;BME280;39571;48.612;8.088;2022-07-29T18:56:17;99676.59;;;25.75;37.79
53671;BME280;39571;48.612;8.088;2022-07-29T18:58:42;99680.38;;;25.48;38.13
53671;BME280;39571;48.612;8.088;2022-07-29T19:01:07;99682.41;;;25.57;38.00
53671;BME280;39571;48.612;8.088;2022-07-29T19:03:33;99681.88;;;25.52;38.41
53671;BME280;39571;48.612;8.088;2022-07-29T19:07:05;99690.94;;;25.39;38.23
53671;BME280;39571;48.612;8.088;2022-07-29T19:09:31;99691.97;;;25.25;38.87
53671;BME280;39571;48.612;8.088;2022-07-29T19:11:56;99695.56;;;25.13;38.28
53671;BME280;39571;48.612;8.088;2022-07-29T19:14:21;99694.72;;;25.12;38.27
53671;BME280;39571;48.612;8.088;2022-07-29T19:16:47;99687.63;;;25.11;38.70
53671;BME280;39571;48.612;8.088;2022-07-29T19:19:12;99690.72;;;24.94;38.60
53671;BME280;39571;48.612;8.088;2022-07-29T19:21:38;99687.94;;;24.96;38.90
53671;BME280;39571;48.612;8.088;2022-07-29T19:24:05;99703.91;;;24.85;39.15
53671;BME280;39571;48.612;8.088;2022-07-29T19:26:31;99701.84;;;24.76;39.26
53671;BME280;39571;48.612;8.088;2022-07-29T19:28:57;99706.06;;;24.67;39.18
53671;BME280;39571;48.612;8.088;2022-07-29T19:31:22;99710.25;;;24.58;39.68
53671;BME280;39571;48.612;8.088;2022-07-29T19:33:48;99715.41;;;24.61;38.91
53671;BME280;39571;48.612;8.088;2022-07-29T19:36:13;99717.31;;;24.59;38.83
53671;BME280;39571;48.612;8.088;2022-07-29T19:38:39;99725.47;;;24.45;39.18
53671;BME280;39571;48.612;8.088;2022-07-29T19:41:04;99721.28;;;24.41;39.31
53671;BME280;39571;48.612;8.088;2022-07-29T19:43:30;99723.47;;;24.36;39.61
53671;BME280;39571;48.612;8.088;2022-07-29T19:45:56;99728.25;;;24.31;38.59
53671;BME280;39571;48.612;8.088;2022-07-29T19:48:21;99736.63;;;24.27;39.60
53671;BME280;39571;48.612;8.088;2022-07-29T19:50:47;99730.63;;;24.36;38.36
53671;BME280;39571;48.612;8.088;2022-07-29T19:53:12;99738.97;;;24.31;37.79
53671;BME280;39571;48.612;8.088;2022-07-29T19:55:37;99740.03;;;24.29;37.93
53671;BME280;39571;48.612;8.088;2022-07-29T19:58:03;99734.47;;;24.32;37.88
53671;BME280;39571;48.612;8.088;2022-07-29T20:00:30;99746.69;;;24.36;37.45
53671;BME280;39571;48.612;8.088;2022-07-29T20:02:55;99742.06;;;24.25;38.00
53671;BME280;39571;48.612;8.088;2022-07-29T20:05:21;99741.56;;;24.20;37.72
53671;BME280;39571;48.612;8.088;2022-07-29T20:07:47;99740.25;;;24.38;36.79
53671;BME280;39571;48.612;8.088;2022-07-29T20:10:12;99745.59;;;24.38;36.90
53671;BME280;39571;48.612;8.088;2022-07-29T20:12:38;99744.31;;;24.31;37.64
53671;BME280;39571;48.612;8.088;2022-07-29T20:15:04;99749.25;;;24.37;37.31
53671;BME280;39571;48.612;8.088;2022-07-29T20:17:31;99743.69;;;24.40;37.64
53671;BME280;39571;48.612;8.088;2022-07-29T20:19:56;99742.19;;;24.36;37.19
53671;BME280;39571;48.612;8.088;2022-07-29T20:22:24;99746.03;;;24.32;37.63
53671;BME280;39571;48.612;8.088;2022-07-29T20:24:49;99737.56;;;24.38;37.32
53671;BME280;39571;48.612;8.088;2022-07-29T20:27:14;99739.50;;;24.36;37.25
53671;BME280;39571;48.612;8.088;2022-07-29T20:29:40;99745.31;;;24.30;37.34
53671;BME280;39571;48.612;8.088;2022-07-29T20:32:05;99745.81;;;24.23;37.78
53671;BME280;39571;48.612;8.088;2022-07-29T20:34:30;99747.97;;;24.30;36.89
53671;BME280;39571;48.612;8.088;2022-07-29T20:36:56;99751.59;;;24.29;36.87
53671;BME280;39571;48.612;8.088;2022-07-29T20:39:22;99748.50;;;24.35;36.61
53671;BME280;39571;48.612;8.088;2022-07-29T20:41:48;99750.22;;;24.36;36.84
53671;BME280;39571;48.612;8.088;2022-07-29T20:44:13;99751.81;;;24.39;36.52
53671;BME280;39571;48.612;8.088;2022-07-29T20:46:40;99758.44;;;24.46;36.33
53671;BME280;39571;48.612;8.088;2022-07-29T20:49:06;99758.34;;;24.47;36.31
53671;BME280;39571;48.612;8.088;2022-07-29T20:51:32;99758.56;;;24.44;37.22
53671;BME280;39571;48.612;8.088;2022-07-29T20:53:57;99756.09;;;24.41;37.66
53671;BME280;39571;48.612;8.088;2022-07-29T20:56:23;99753.94;;;24.46;37.19
53671;BME280;39571;48.612;8.088;2022-07-29T20:58:48;99749.38;;;24.23;37.77
53671;BME280;39571;48.612;8.088;2022-07-29T21:01:13;99755.44;;;24.25;37.37
53671;BME280;39571;48.612;8.088;2022-07-29T21:03:39;99752.97;;;24.35;37.47
53671;BME280;39571;48.612;8.088;2022-07-29T21:06:05;99751.38;;;24.32;37.59
53671;BME280;39571;48.612;8.088;2022-07-29T21:08:32;99747.00;;;24.31;37.47
53671;BME280;39571;48.612;8.088;2022-07-29T21:10:57;99754.16;;;24.18;37.86
53671;BME280;39571;48.612;8.088;2022-07-29T21:13:23;99755.47;;;24.12;38.21
53671;BME280;39571;48.612;8.088;2022-07-29T21:15:50;99752.84;;;24.11;39.28
53671;BME280;39571;48.612;8.088;2022-07-29T21:18:16;99753.22;;;23.80;40.69
53671;BME280;39571;48.612;8.088;2022-07-29T21:21:02;99763.38;;;23.75;39.57
53671;BME280;39571;48.612;8.088;2022-07-29T21:23:28;99755.00;;;23.67;40.91
53671;BME280;39571;48.612;8.088;2022-07-29T21:25:54;99760.22;;;23.55;41.64
53671;BME280;39571;48.612;8.088;2022-07-29T21:28:20;99764.44;;;23.45;40.92
53671;BME280;39571;48.612;8.088;2022-07-29T21:30:57;99772.19;;;23.62;39.53
53671;BME280;39571;48.612;8.088;2022-07-29T21:33:23;99761.72;;;23.59;39.70
53671;BME280;39571;48.612;8.088;2022-07-29T21:35:49;99763.66;;;23.57;40.07
53671;BME280;39571;48.612;8.088;2022-07-29T21:38:15;99775.00;;;23.61;39.19
53671;BME280;39571;48.612;8.088;2022-07-29T21:40:51;99773.72;;;23.67;39.22
53671;BME280;39571;48.612;8.088;2022-07-29T21:43:19;99774.28;;;23.72;39.33
53671;BME280;39571;48.612;8.088;2022-07-29T21:45:45;99782.94;;;23.75;39.18
53671;BME280;39571;48.612;8.088;2022-07-29T21:48:17;99787.66;;;23.72;39.65
53671;BME280;39571;48.612;8.088;2022-07-29T21:50:43;99785.50;;;23.77;39.89
53671;BME280;39571;48.612;8.088;2022-07-29T21:53:09;99782.75;;;23.78;39.89
53671;BME280;39571;48.612;8.088;2022-07-29T21:55:34;99785.94;;;23.71;40.01
53671;BME280;39571;48.612;8.088;2022-07-29T21:58:00;99797.03;;;23.64;40.14
53671;BME280;39571;48.612;8.088;2022-07-29T22:00:25;99793.38;;;23.65;40.30
53671;BME280;39571;48.612;8.088;2022-07-29T22:02:51;99799.69;;;23.64;40.55
53671;BME280;39571;48.612;8.088;2022-07-29T22:05:17;99802.59;;;23.61;40.68
53671;BME280;39571;48.612;8.088;2022-07-29T22:07:43;99808.75;;;23.62;41.16
53671;BME280;39571;48.612;8.088;2022-07-29T22:10:09;99808.31;;;23.55;41.06
53671;BME280;39571;48.612;8.088;2022-07-29T22:12:35;99813.44;;;23.58;41.45
53671;BME280;39571;48.612;8.088;2022-07-29T22:15:00;99811.53;;;23.60;41.38
53671;BME280;39571;48.612;8.088;2022-07-29T22:17:26;99810.84;;;23.44;41.67
53671;BME280;39571;48.612;8.088;2022-07-29T22:19:52;99810.84;;;23.44;41.84
53671;BME280;39571;48.612;8.088;2022-07-29T22:22:18;99813.91;;;23.24;43.71
53671;BME280;39571;48.612;8.088;2022-07-29T22:24:45;99812.50;;;23.19;43.31
53671;BME280;39571;48.612;8.088;2022-07-29T22:27:10;99818.72;;;23.05;43.31
53671;BME280;39571;48.612;8.088;2022-07-29T22:29:35;99815.19;;;22.90;44.02
53671;BME280;39571;48.612;8.088;2022-07-29T22:32:01;99815.19;;;22.90;43.90
53671;BME280;39571;48.612;8.088;2022-07-29T22:34:26;99821.78;;;22.85;44.10
53671;BME280;39571;48.612;8.088;2022-07-29T22:36:51;99823.66;;;22.83;44.12
53671;BME280;39571;48.612;8.088;2022-07-29T22:39:17;99826.44;;;22.67;44.75
53671;BME280;39571;48.612;8.088;2022-07-29T22:41:42;99831.06;;;22.49;45.85
53671;BME280;39571;48.612;8.088;2022-07-29T22:44:07;99829.53;;;22.45;45.48